This is the latest recevied weather packets stored in our database for station/object WV5G-13. If no packets are shown the sender has not sent any weather packets the latest 10 day(s).
| Time | Temp. | Humidity | Pressure | Rain* | Wind** | Luminosity | Snow |
|---|---|---|---|---|---|---|---|
| 1777762427 | 22.22° C | 19% | 1016.6 hPa | 0 mm | - | 407 W/m² | - |
| 1777762124 | 22.78° C | 19% | 1016.6 hPa | 0 mm | - | 425 W/m² | - |
| 1777761820 | 23.33° C | 18% | 1016.7 hPa | 0 mm | - | 443 W/m² | - |
| 1777761517 | 22.78° C | 17% | 1016.6 hPa | 0 mm | - | 451 W/m² | - |
| 1777761215 | 22.78° C | 17% | 1016.5 hPa | 0 mm | - | 456 W/m² | - |
| 1777760913 | 22.22° C | 17% | 1016.7 hPa | 0 mm | - | 464 W/m² | - |
| 1777760610 | 22.78° C | 17% | 1016.8 hPa | 0 mm | - | 479 W/m² | - |
| 1777760306 | 22.78° C | 17% | 1016.9 hPa | 0 mm | - | 500 W/m² | - |
| 1777760002 | 22.78° C | 17% | 1016.8 hPa | 0 mm | - | 515 W/m² | - |
| 1777759700 | 22.78° C | 19% | 1017 hPa | 0 mm | - | 531 W/m² | - |
| 1777759395 | 23.33° C | 17% | 1016.8 hPa | 0 mm | - | 549 W/m² | - |
| 1777759092 | 22.78° C | 17% | 1017 hPa | 0 mm | - | 568 W/m² | - |
| 1777758789 | 22.22° C | 17% | 1017.2 hPa | 0 mm | - | 584 W/m² | - |
| 1777758487 | 22.22° C | 18% | 1017.1 hPa | 0 mm | - | 600 W/m² | - |
| 1777758183 | 22.22° C | 18% | 1017.5 hPa | 0 mm | - | 614 W/m² | - |
| 1777757880 | 23.33° C | 18% | 1017.2 hPa | 0 mm | - | 626 W/m² | - |
| 1777757577 | 22.78° C | 19% | 1017.4 hPa | 0 mm | - | 640 W/m² | - |
| 1777757276 | 22.78° C | 18% | 1017.4 hPa | 0 mm | - | 652 W/m² | - |
| 1777756974 | 22.22° C | 18% | 1017.7 hPa | 0 mm | - | 667 W/m² | - |
| 1777756669 | 22.78° C | 17% | 1017.6 hPa | 0 mm | - | 681 W/m² | - |
| 1777756366 | 22.78° C | 17% | 1017.8 hPa | 0 mm | - | 695 W/m² | - |
| 1777756063 | 22.22° C | 19% | 1018 hPa | 0 mm | - | 708 W/m² | - |
| 1777755755 | 22.22° C | 18% | 1017.8 hPa | 0 mm | - | 723 W/m² | - |
| 1777755452 | 21.67° C | 20% | 1018 hPa | 0 mm | - | 740 W/m² | - |
| 1777755148 | 21.67° C | 20% | 1018 hPa | 0 mm | - | 761 W/m² | - |
* Rain latest hour (hover to see other rain measurements)
** Current wind speed in m/s (hover to see current wind gust speed)